Observations for Trim Market St
| Time | AQI | Temp °C | Hum % | Pres Pa | CO μg/m³ | H₂S μg/m³ | NO μg/m³ | NO₂ μg/m³ | O₃ μg/m³ | SO₂ μg/m³ | PM1 μg/m³ | PM2.5 μg/m³ | PM10 μg/m³ |
|---|---|---|---|---|---|---|---|---|---|---|---|---|---|
| Sunday 16 August 2026 | |||||||||||||
| 18:04 | 3 | 21.9 | 64 | 57,104 | 0 | 0 | 1.08 | 11.13 | 66.73 | 0 | 1.43 | 2.37 | 3.54 |
| 18:03 | 3 | 21.8 | 64 | 57,107 | 0.06 | 0 | 1.11 | 11.54 | 71.86 | 0 | 0 | 2.37 | 3.54 |
| 18:02 | 2 | 21.8 | 64 | 57,113 | 0.14 | 0 | 1.11 | 11.47 | 66.42 | 0 | 0 | 1.87 | 2.87 |
| 18:01 | 2 | 21.8 | 63 | 57,122 | 0.18 | 0 | 1.13 | 11.78 | 67.05 | 0 | 0.71 | 2.87 | 4.2 |
| 17:57 | 2 | 21.8 | 63 | 57,132 | 0.09 | 0 | 1.12 | 11.58 | 63.41 | 0 | 0 | 1.88 | 2.86 |
| 17:53 | 2 | 21.8 | 63 | 57,192 | 0.1 | 0 | 1.13 | 12.33 | 73.32 | 0 | 0 | 1.9 | 2.85 |
| 17:52 | 2 | 21.8 | 63 | 57,207 | 0.08 | 0 | 1.12 | 12.37 | 72.75 | 0 | 0.71 | 1.9 | 2.85 |
| 17:51 | 2 | 21.8 | 63 | 57,221 | 0.04 | 0 | 1.14 | 12.11 | 70.19 | 0 | 0 | 1.9 | 2.85 |
| 17:42 | 2 | 21.8 | 63 | 57,314 | 0.08 | 0 | 1.12 | 12.04 | 75.55 | 0 | 0 | 1.91 | 2.84 |
| 17:41 | 2 | 21.8 | 63 | 57,312 | 0.11 | 0 | 1.12 | 12.15 | 75.57 | 0 | 0.71 | 2.91 | 4.18 |
| 17:40 | 2 | 21.8 | 63 | 57,308 | 0.21 | 0 | 1.13 | 12.2 | 76.19 | 0 | 0 | 2.41 | 4.85 |
| 17:39 | 2 | 21.8 | 63 | 57,304 | 0.07 | 0 | 1.13 | 11.72 | 67.48 | 0 | 0.71 | 1.91 | 2.83 |
| 17:38 | 2 | 21.8 | 63 | 57,296 | 0.13 | 0 | 1.13 | 11.58 | 67.73 | 0 | 1.43 | 2.91 | 4.18 |
| 17:37 | 2 | 21.8 | 63 | 57,293 | 0.24 | 0 | 1.14 | 12.14 | 73.84 | 0 | 0.71 | 2.91 | 4.85 |
| 17:36 | 2 | 21.7 | 63 | 57,289 | 0.07 | 0 | 1.15 | 12.15 | 69.95 | 0 | 0.71 | 2.91 | 4.18 |
| 17:35 | 2 | 21.7 | 63 | 57,285 | 0.14 | 0 | 1.14 | 12.08 | 71.05 | 0 | 1.43 | 3.9 | 5.52 |
| 17:34 | 2 | 21.7 | 63 | 57,284 | 0.01 | 0 | 1.15 | 12.05 | 72.47 | 0 | 0.71 | 3.4 | 4.85 |
| 17:33 | 2 | 21.6 | 63 | 57,277 | 0 | 0 | 1.16 | 11.43 | 63.58 | 0 | 0.71 | 2.41 | 3.5 |
| 17:31 | 2 | 21.6 | 63 | 57,287 | 0.06 | 0 | 1.16 | 12.43 | 74.26 | 0 | 0.71 | 3.4 | 4.85 |
| 17:30 | 2 | 21.6 | 62 | 57,294 | 0.1 | 0 | 1.15 | 12.14 | 74.38 | 0 | 0.71 | 2.41 | 3.5 |